Willow Valley, IN

11:09 PM EST on December 07, 2016 (GMT -0500)
| | Change Station

Elev -9999 ft 0.00 °N, 0.00 °E | Updated 0 second ago

Overcast
Overcast
°F
Feels Like °F
N
Wind Variable Wind from North
Gusts mph

Today
High -- | Low -- °F
--% Chance of Precip.
Yesterday
High -- | Low -- °F
Precip. -- in
Pressure 30.25 in
Visibility 10.0 miles
Clouds Scattered Clouds 6500 ft
Scattered Clouds 10000 ft
Overcast 12000 ft
Dew Point Not available.
Humidity Not available.
Rainfall --
Snow Depth Not available.
7:51 AM 5:25 PM
First Quarter, 59% visible
METAR KDCY 080355Z AUTO 30005KT 10SM SCT065 SCT100 OVC120 00/M03 A3025 RMK AO2 T00021034
Pressure 30.25 in
Visibility 10.0 miles
Clouds Scattered Clouds 6500 ft
Scattered Clouds 10000 ft
Overcast 12000 ft
Dew Point Not available.
Humidity Not available.
Rainfall --
Snow Depth Not available.
7:51 AM 5:25 PM
First Quarter, 59% visible
METAR KDCY 080355Z AUTO 30005KT 10SM SCT065 SCT100 OVC120 00/M03 A3025 RMK AO2 T00021034

10-Day Weather Forecast

Almanac

Astronomy

Dec. 07, 2016 Rise Set
Actual Time
Civil Twilight
Nautical Twilight
Astronomical Twilight
Moon
Length of Visible Light
Length of Day
Tomorrow will be .
, % of the Moon is Illuminated

Today's Extremes

State Highs State Lows

Community

WunderPhotos

Upload Photos

1,956,259 photos uploaded!

WunderBlog® & News

Nearby

Air Quality

  Air Quality AQ Index Pollutant
Not available.

Snow Depth

Station Depth Elevation

Earthquake Activity

City Distance Mag. Time & Date
Minimum magnitude displayed is 2.5.

Coastal Water Temperatures

Place Temperature

Stations

Nearby Weather Stations

Station Location Temp. Windchill Dew Point Humidity Wind Precip. Elev Updated Type
                   

Watches & Warnings

There are currently no watches in effect.